createdAt,value
2023-05-05T00:02:01.684Z,100613.19
2023-05-05T00:04:28.169Z,100612.00
2023-05-05T00:06:54.473Z,100613.50
2023-05-05T00:09:21.448Z,100603.22
2023-05-05T00:11:47.761Z,100606.75
2023-05-05T00:14:14.219Z,100609.66
2023-05-05T00:16:40.575Z,100605.13
2023-05-05T00:19:06.941Z,100596.16
2023-05-05T00:21:33.246Z,100610.88
2023-05-05T00:23:59.548Z,100600.50
2023-05-05T00:26:25.868Z,100591.22
2023-05-05T00:28:52.172Z,100603.53
2023-05-05T00:31:18.507Z,100606.25
2023-05-05T00:33:44.847Z,100602.03
2023-05-05T00:36:11.155Z,100592.63
2023-05-05T00:38:37.547Z,100592.13
2023-05-05T00:41:03.967Z,100589.41
2023-05-05T00:43:30.322Z,100587.94
2023-05-05T00:46:09.559Z,100590.25
2023-05-05T00:48:36.145Z,100585.00
2023-05-05T00:51:02.464Z,100575.31
2023-05-05T00:53:28.895Z,100573.91
2023-05-05T00:55:55.254Z,100569.88
2023-05-05T00:58:21.690Z,100569.88
2023-05-05T01:00:48.002Z,100562.31
2023-05-05T01:03:14.369Z,100569.25
2023-05-05T01:06:11.714Z,100559.81
2023-05-05T01:08:43.880Z,100562.53
2023-05-05T01:11:23.891Z,100560.41
2023-05-05T01:14:05.900Z,100560.50
2023-05-05T01:16:34.197Z,100548.50
2023-05-05T01:19:14.434Z,100546.38
2023-05-05T01:21:53.263Z,100553.75
2023-05-05T01:24:31.712Z,100549.41
2023-05-05T01:27:19.838Z,100549.09
2023-05-05T01:30:30.541Z,100551.13
2023-05-05T01:33:03.749Z,100542.66
2023-05-05T01:35:41.164Z,100546.66
2023-05-05T01:38:24.808Z,100532.25
2023-05-05T01:41:03.571Z,100533.28
2023-05-05T01:43:35.444Z,100537.59
2023-05-05T01:46:03.510Z,100528.03
2023-05-05T01:48:30.881Z,100526.31
2023-05-05T01:50:58.655Z,100530.34
2023-05-05T01:53:27.081Z,100530.34
2023-05-05T01:55:55.352Z,100535.34
2023-05-05T01:58:23.332Z,100530.34
2023-05-05T02:00:51.246Z,100531.72
2023-05-05T02:03:19.597Z,100527.19
2023-05-05T02:05:47.457Z,100522.97
2023-05-05T02:08:15.571Z,100529.75
2023-05-05T02:10:43.220Z,100530.25
2023-05-05T02:13:11.787Z,100521.72
2023-05-05T02:15:39.295Z,100523.91
2023-05-05T02:18:06.736Z,100525.81
2023-05-05T02:20:33.972Z,100513.81
2023-05-05T02:23:00.332Z,100514.94
2023-05-05T02:25:35.309Z,100522.69
2023-05-05T02:28:03.648Z,100525.13
2023-05-05T02:30:34.672Z,100520.19
2023-05-05T02:33:07.001Z,100520.28
2023-05-05T02:35:38.785Z,100514.66
2023-05-05T02:38:09.471Z,100515.97
2023-05-05T02:40:36.901Z,100519.59
2023-05-05T02:43:09.738Z,100516.69
2023-05-05T02:45:36.219Z,100513.44
2023-05-05T02:48:03.600Z,100513.44
2023-05-05T02:50:31.305Z,100502.75
2023-05-05T02:53:01.063Z,100495.63
2023-05-05T02:55:37.442Z,100502.78
2023-05-05T02:58:09.247Z,100498.16
2023-05-05T03:00:57.608Z,100497.94
2023-05-05T03:03:38.469Z,100498.53
2023-05-05T03:06:17.488Z,100497.94
2023-05-05T03:09:09.633Z,100509.44
2023-05-05T03:11:40.317Z,100499.47
2023-05-05T03:14:12.783Z,100498.63
2023-05-05T03:16:41.734Z,100488.38
2023-05-05T03:19:11.107Z,100492.28
2023-05-05T03:21:38.981Z,100499.94
2023-05-05T03:24:15.718Z,100487.28
2023-05-05T03:26:43.277Z,100490.09
2023-05-05T03:29:09.933Z,100487.28
2023-05-05T03:31:36.492Z,100490.28
2023-05-05T03:34:03.295Z,100488.16
2023-05-05T03:36:30.004Z,100495.72
2023-05-05T03:38:56.464Z,100497.03
2023-05-05T03:41:22.795Z,100501.75
2023-05-05T03:43:49.348Z,100494.31
2023-05-05T03:46:15.904Z,100494.81
2023-05-05T03:48:42.913Z,100505.19
2023-05-05T03:51:09.468Z,100505.19
2023-05-05T03:53:36.012Z,100503.97
2023-05-05T03:56:02.375Z,100506.19
2023-05-05T03:58:28.709Z,100505.38
2023-05-05T04:00:55.005Z,100504.47
2023-05-05T04:03:21.487Z,100503.34
2023-05-05T04:05:47.953Z,100506.78
2023-05-05T04:08:14.286Z,100509.38
2023-05-05T04:10:40.603Z,100507.50
2023-05-05T04:13:06.965Z,100509.09
2023-05-05T04:15:33.270Z,100499.25
2023-05-05T04:17:59.625Z,100504.38
2023-05-05T04:20:26.092Z,100500.72
2023-05-05T04:22:52.857Z,100505.25
2023-05-05T04:25:19.227Z,100506.19
2023-05-05T04:27:45.541Z,100512.94
2023-05-05T04:30:12.036Z,100512.66
2023-05-05T04:32:38.402Z,100521.91
2023-05-05T04:35:05.112Z,100523.22
2023-05-05T04:37:31.439Z,100525.13
2023-05-05T04:39:57.735Z,100524.53
2023-05-05T04:42:24.083Z,100526.72
2023-05-05T04:44:50.427Z,100517.25
2023-05-05T04:47:16.890Z,100514.22
2023-05-05T04:49:43.178Z,100511.72
2023-05-05T04:52:12.088Z,100514.22
2023-05-05T04:54:38.389Z,100506.38
2023-05-05T04:57:04.753Z,100504.69
2023-05-05T04:59:31.104Z,100502.72
2023-05-05T05:01:57.430Z,100499.13
2023-05-05T05:04:23.886Z,100498.06
2023-05-05T05:06:50.171Z,100514.47
2023-05-05T05:09:16.477Z,100508.72
2023-05-05T05:11:42.778Z,100505.94
2023-05-05T05:14:09.179Z,100507.25
2023-05-05T05:16:35.533Z,100505.38
2023-05-05T05:19:02.067Z,100506.94
2023-05-05T05:21:28.410Z,100514.97
2023-05-05T05:23:54.732Z,100514.00
2023-05-05T05:26:21.083Z,100508.41
2023-05-05T05:28:47.407Z,100521.84
2023-05-05T05:31:13.788Z,100519.22
2023-05-05T05:33:40.089Z,100524.66
2023-05-05T05:36:06.478Z,100527.75
2023-05-05T05:38:32.773Z,100532.25
2023-05-05T05:40:59.133Z,100541.56
2023-05-05T05:43:25.537Z,100546.31
2023-05-05T05:45:51.985Z,100539.38
2023-05-05T05:48:18.369Z,100549.44
2023-05-05T05:50:44.652Z,100544.88
2023-05-05T05:53:10.972Z,100531.09
2023-05-05T05:55:37.266Z,100540.81
2023-05-05T05:58:03.587Z,100553.06
2023-05-05T06:00:29.969Z,100549.78
2023-05-05T06:02:56.383Z,100561.44
2023-05-05T06:05:22.739Z,100561.91
2023-05-05T06:07:49.043Z,100551.16
2023-05-05T06:10:27.528Z,100550.53
2023-05-05T06:12:54.575Z,100547.94
2023-05-05T06:15:20.913Z,100560.00
2023-05-05T06:17:47.227Z,100542.31
2023-05-05T06:20:13.555Z,100553.34
2023-05-05T06:22:39.862Z,100560.50
2023-05-05T06:25:06.727Z,100555.69
2023-05-05T06:27:33.052Z,100546.06
2023-05-05T06:29:59.339Z,100527.66
2023-05-05T06:32:25.698Z,100531.34
2023-05-05T06:34:51.996Z,100530.16
2023-05-05T06:37:18.296Z,100527.91
2023-05-05T06:39:44.632Z,100534.75
2023-05-05T06:42:10.953Z,100542.78
2023-05-05T06:44:37.249Z,100552.88
2023-05-05T06:47:03.991Z,100560.13
2023-05-05T06:49:30.360Z,100576.59
2023-05-05T06:51:56.645Z,100579.47
2023-05-05T06:54:23.026Z,100594.69
2023-05-05T06:56:49.311Z,100610.09
2023-05-05T06:59:15.608Z,100620.03
2023-05-05T07:01:42.163Z,100626.09
2023-05-05T07:04:08.517Z,100636.06
2023-05-05T07:06:34.837Z,100630.88
2023-05-05T07:09:01.141Z,100620.25
2023-05-05T07:11:27.491Z,100624.19
2023-05-05T07:13:53.777Z,100616.69
2023-05-05T07:16:20.071Z,100616.13
2023-05-05T07:18:46.383Z,100611.38
2023-05-05T07:21:12.662Z,100616.03
2023-05-05T07:23:39.001Z,100611.16
2023-05-05T07:26:05.385Z,100616.41
2023-05-05T07:28:31.680Z,100618.41
2023-05-05T07:30:58.004Z,100618.78
2023-05-05T07:33:24.302Z,100621.78
2023-05-05T07:35:50.675Z,100624.56
2023-05-05T07:38:16.978Z,100632.03
2023-05-05T07:40:43.280Z,100622.78
2023-05-05T07:43:09.595Z,100618.59
2023-05-05T07:45:35.920Z,100619.00
2023-05-05T07:48:02.318Z,100624.38
2023-05-05T07:50:28.643Z,100624.47
2023-05-05T07:53:05.765Z,100625.41
2023-05-05T07:55:36.836Z,100625.34
2023-05-05T07:58:03.175Z,100627.69
2023-05-05T08:00:29.753Z,100629.81
2023-05-05T08:02:56.179Z,100632.44
2023-05-05T08:05:22.592Z,100633.56
2023-05-05T08:07:48.931Z,100640.94
2023-05-05T08:10:15.264Z,100642.56
2023-05-05T08:12:41.591Z,100641.50
2023-05-05T08:15:08.632Z,100641.09
2023-05-05T08:17:49.386Z,100641.28
2023-05-05T08:20:16.701Z,100639.50
2023-05-05T08:22:43.088Z,100642.59
2023-05-05T08:25:10.140Z,100649.31
2023-05-05T08:27:38.204Z,100649.03
2023-05-05T08:30:05.432Z,100648.97
2023-05-05T08:32:31.981Z,100641.06
2023-05-05T08:34:58.314Z,100648.44
2023-05-05T08:37:24.704Z,100643.66
2023-05-05T08:39:51.038Z,100650.06
2023-05-05T08:42:25.778Z,100658.81
2023-05-05T08:44:59.598Z,100650.31
2023-05-05T08:47:26.004Z,100650.59
2023-05-05T08:49:54.478Z,100652.56
2023-05-05T08:52:23.747Z,100646.31
2023-05-05T08:54:54.723Z,100648.25
2023-05-05T08:57:28.268Z,100649.97
2023-05-05T08:59:56.766Z,100647.22
2023-05-05T09:02:24.152Z,100647.28
2023-05-05T09:04:52.203Z,100650.13
2023-05-05T09:07:18.720Z,100650.59
2023-05-05T09:09:45.942Z,100652.47
2023-05-05T09:12:12.316Z,100649.09
2023-05-05T09:14:38.627Z,100644.78
2023-05-05T09:17:04.980Z,100646.13
2023-05-05T09:19:31.328Z,100645.34
2023-05-05T09:21:57.644Z,100643.53
2023-05-05T09:24:23.980Z,100644.47
2023-05-05T09:26:51.532Z,100652.50
2023-05-05T09:29:19.282Z,100649.75
2023-05-05T09:32:03.535Z,100659.84
2023-05-05T09:34:29.909Z,100664.75
2023-05-05T09:36:56.228Z,100654.66
2023-05-05T09:39:22.586Z,100656.28
2023-05-05T09:41:48.919Z,100660.59
2023-05-05T09:44:15.384Z,100656.06
2023-05-05T09:46:52.211Z,100654.97
2023-05-05T09:49:21.328Z,100657.22
2023-05-05T09:51:48.912Z,100654.81
2023-05-05T09:54:28.076Z,100668.03
2023-05-05T09:56:56.225Z,100659.22
2023-05-05T09:59:23.537Z,100663.72
2023-05-05T10:01:51.221Z,100651.56
2023-05-05T10:04:28.871Z,100652.84
2023-05-05T10:06:56.626Z,100647.84
2023-05-05T10:09:24.145Z,100642.38
2023-05-05T10:11:51.482Z,100643.47
2023-05-05T10:14:18.729Z,100639.91
2023-05-05T10:16:49.953Z,100642.16
2023-05-05T10:19:21.079Z,100645.19
2023-05-05T10:21:50.814Z,100634.41
2023-05-05T10:24:35.756Z,100629.59
2023-05-05T10:27:05.027Z,100634.69
2023-05-05T10:29:48.046Z,100632.84
2023-05-05T10:32:51.543Z,100628.34
2023-05-05T10:35:16.519Z,100631.63
2023-05-05T10:37:44.732Z,100637.69
2023-05-05T10:40:13.276Z,100621.19
2023-05-05T10:42:39.655Z,100632.38
2023-05-05T10:45:06.970Z,100618.13
2023-05-05T10:47:34.440Z,100612.47
2023-05-05T10:50:26.728Z,100615.63
2023-05-05T10:53:28.508Z,100613.09
2023-05-05T10:56:22.447Z,100608.75
2023-05-05T10:58:59.276Z,100615.44
2023-05-05T11:01:34.976Z,100609.19
2023-05-05T11:04:15.986Z,100609.13
2023-05-05T11:07:08.773Z,100608.16
2023-05-05T11:10:00.691Z,100610.03
2023-05-05T11:12:29.475Z,100608.63
2023-05-05T11:15:23.968Z,100601.66
2023-05-05T11:17:50.515Z,100608.00
2023-05-05T11:20:16.952Z,100594.53
2023-05-05T11:23:01.852Z,100593.72
2023-05-05T11:25:34.363Z,100584.44
2023-05-05T11:28:08.825Z,100577.44
2023-05-05T11:30:56.035Z,100579.41
2023-05-05T11:33:32.973Z,100577.84
2023-05-05T11:36:06.791Z,100576.28
2023-05-05T11:38:48.640Z,100576.38
2023-05-05T11:41:30.228Z,100578.16
2023-05-05T11:44:09.999Z,100569.16
2023-05-05T11:46:36.708Z,100568.09
2023-05-05T11:49:03.162Z,100566.16
2023-05-05T11:51:30.118Z,100561.25
2023-05-05T11:53:58.456Z,100569.28
2023-05-05T11:56:25.416Z,100554.19
2023-05-05T11:59:10.484Z,100558.34
2023-05-05T12:01:43.015Z,100560.28
2023-05-05T12:04:13.870Z,100558.84
2023-05-05T12:06:40.805Z,100566.88
2023-05-05T12:09:20.841Z,100555.44
2023-05-05T12:11:58.685Z,100555.78
2023-05-05T12:14:25.728Z,100552.47
2023-05-05T12:16:58.656Z,100553.06
2023-05-05T12:19:25.050Z,100549.81
2023-05-05T12:21:51.365Z,100547.44
2023-05-05T12:24:17.750Z,100550.66
2023-05-05T12:26:44.151Z,100537.38
2023-05-05T12:29:10.484Z,100532.69
2023-05-05T12:31:40.923Z,100528.97
2023-05-05T12:34:09.611Z,100528.69
2023-05-05T12:36:37.057Z,100527.75
2023-05-05T12:39:04.598Z,100521.47
2023-05-05T12:41:31.852Z,100525.22
2023-05-05T12:43:59.254Z,100520.31
2023-05-05T12:46:26.616Z,100516.00
2023-05-05T12:49:00.506Z,100521.34
2023-05-05T12:51:27.380Z,100522.69
2023-05-05T12:54:05.602Z,100513.81
2023-05-05T12:56:41.114Z,100510.22
2023-05-05T12:59:12.259Z,100517.44
2023-05-05T13:01:58.796Z,100508.81
2023-05-05T13:04:26.210Z,100506.47
2023-05-05T13:07:13.157Z,100506.41
2023-05-05T13:09:39.837Z,100487.00
2023-05-05T13:12:06.415Z,100495.69
2023-05-05T13:14:32.753Z,100489.91
2023-05-05T13:16:59.124Z,100496.97
2023-05-05T13:19:25.519Z,100495.34
2023-05-05T13:21:52.847Z,100492.78
2023-05-05T13:24:28.530Z,100486.53
2023-05-05T13:27:01.153Z,100487.09
2023-05-05T13:29:31.055Z,100482.31
2023-05-05T13:31:58.016Z,100477.34
2023-05-05T13:34:24.357Z,100467.06
2023-05-05T13:36:50.653Z,100458.22
2023-05-05T13:39:17.026Z,100461.78
2023-05-05T13:41:43.350Z,100464.06
2023-05-05T13:44:09.662Z,100459.25
2023-05-05T13:46:35.977Z,100451.41
2023-05-05T13:49:02.298Z,100455.81
2023-05-05T13:51:28.598Z,100459.66
2023-05-05T13:53:54.939Z,100454.28
2023-05-05T13:56:21.314Z,100444.25
2023-05-05T13:58:47.688Z,100441.72
2023-05-05T14:01:14.074Z,100444.59
2023-05-05T14:03:40.586Z,100451.16
2023-05-05T14:06:07.570Z,100444.94
2023-05-05T14:08:33.866Z,100441.09
2023-05-05T14:11:00.213Z,100444.84
2023-05-05T14:13:26.509Z,100439.06
2023-05-05T14:15:52.835Z,100439.19
2023-05-05T14:18:19.187Z,100429.63
2023-05-05T14:20:45.510Z,100429.56
2023-05-05T14:23:11.831Z,100432.66
2023-05-05T14:25:38.599Z,100431.63
2023-05-05T14:28:04.916Z,100434.25
2023-05-05T14:30:31.227Z,100440.38
2023-05-05T14:32:57.537Z,100435.94
2023-05-05T14:35:23.878Z,100432.69
2023-05-05T14:37:50.193Z,100439.41
2023-05-05T14:40:16.508Z,100435.91
2023-05-05T14:42:42.876Z,100439.28
2023-05-05T14:45:09.816Z,100446.59
2023-05-05T14:47:36.289Z,100461.00
2023-05-05T14:50:02.687Z,100465.94
2023-05-05T14:52:28.989Z,100474.41
2023-05-05T14:54:55.306Z,100493.72
2023-05-05T14:57:21.731Z,100516.22
2023-05-05T14:59:48.040Z,100555.06
2023-05-05T15:02:14.324Z,100578.41
2023-05-05T15:04:40.636Z,100580.06
2023-05-05T15:07:06.951Z,100573.69
2023-05-05T15:09:33.266Z,100570.75
2023-05-05T15:11:59.550Z,100576.31
2023-05-05T15:14:25.846Z,100566.47
2023-05-05T15:16:52.132Z,100566.97
2023-05-05T15:19:18.438Z,100569.88
2023-05-05T15:21:44.745Z,100559.28
2023-05-05T15:24:11.126Z,100563.91
2023-05-05T15:26:37.428Z,100571.47
2023-05-05T15:29:03.736Z,100561.19
2023-05-05T15:31:30.201Z,100571.13
2023-05-05T15:33:56.583Z,100576.16
2023-05-05T15:36:22.970Z,100576.97
2023-05-05T15:38:49.291Z,100580.47
2023-05-05T15:41:15.657Z,100574.84
2023-05-05T15:43:41.963Z,100576.59
2023-05-05T15:46:08.251Z,100597.50
2023-05-05T15:48:34.549Z,100597.34
2023-05-05T15:51:00.974Z,100610.19
2023-05-05T15:53:27.278Z,100629.84
2023-05-05T15:55:53.580Z,100633.88
2023-05-05T15:58:19.893Z,100628.72
2023-05-05T16:00:46.196Z,100632.91
2023-05-05T16:03:12.608Z,100627.72
2023-05-05T16:05:38.986Z,100628.69
2023-05-05T16:08:05.385Z,100632.53
2023-05-05T16:10:31.676Z,100632.13
2023-05-05T16:12:58.002Z,100634.81
2023-05-05T16:15:24.311Z,100644.41
2023-05-05T16:17:50.614Z,100644.22
2023-05-05T16:20:17.009Z,100651.44
2023-05-05T16:22:43.329Z,100647.41
2023-05-05T16:25:10.116Z,100663.81
2023-05-05T16:27:36.627Z,100663.00
2023-05-05T16:30:03.149Z,100668.09
2023-05-05T16:32:29.549Z,100666.22
2023-05-05T16:34:55.840Z,100668.16
2023-05-05T16:37:22.170Z,100667.81
2023-05-05T16:39:48.666Z,100667.63
2023-05-05T16:42:15.026Z,100663.03
2023-05-05T16:44:41.317Z,100668.31
2023-05-05T16:47:07.613Z,100664.47
2023-05-05T16:49:33.908Z,100671.75
2023-05-05T16:52:00.201Z,100675.16
2023-05-05T16:54:26.498Z,100667.56
2023-05-05T16:56:52.817Z,100663.97
2023-05-05T16:59:19.166Z,100666.59
2023-05-05T17:01:45.536Z,100657.34
2023-05-05T17:04:11.984Z,100660.75
2023-05-05T17:06:38.401Z,100658.00
2023-05-05T17:09:04.745Z,100653.38
2023-05-05T17:11:31.057Z,100654.94
2023-05-05T17:13:57.354Z,100654.66
2023-05-05T17:16:23.755Z,100650.59
2023-05-05T17:18:50.117Z,100659.84
2023-05-05T17:21:16.429Z,100664.25
2023-05-05T17:23:42.732Z,100666.06
2023-05-05T17:26:09.055Z,100659.63
2023-05-05T17:28:35.340Z,100651.31
2023-05-05T17:31:01.662Z,100654.53
2023-05-05T17:33:27.951Z,100649.41
2023-05-05T17:35:54.452Z,100646.22
2023-05-05T17:38:20.770Z,100647.03
2023-05-05T17:40:47.184Z,100643.63
2023-05-05T17:43:13.505Z,100645.84
2023-05-05T17:45:39.857Z,100656.06
2023-05-05T17:48:06.391Z,100654.09
2023-05-05T17:50:32.703Z,100662.63
2023-05-05T17:52:59.020Z,100657.72
2023-05-05T17:55:25.329Z,100654.59
2023-05-05T17:57:51.633Z,100665.44
2023-05-05T18:00:18.369Z,100662.09
2023-05-05T18:02:44.788Z,100665.38
2023-05-05T18:05:11.389Z,100658.34
2023-05-05T18:07:37.894Z,100653.00
2023-05-05T18:10:06.149Z,100657.81
2023-05-05T18:12:32.501Z,100655.94
2023-05-05T18:14:58.829Z,100651.38
2023-05-05T18:17:25.196Z,100645.53
2023-05-05T18:19:51.519Z,100645.31
2023-05-05T18:22:17.865Z,100656.44
2023-05-05T18:24:46.023Z,100650.50
2023-05-05T18:27:12.429Z,100648.91
2023-05-05T18:29:38.804Z,100638.44
2023-05-05T18:32:06.116Z,100637.56
2023-05-05T18:34:32.562Z,100641.78
2023-05-05T18:36:58.858Z,100647.56
2023-05-05T18:39:25.188Z,100649.69
2023-05-05T18:41:51.561Z,100648.75
2023-05-05T18:44:18.984Z,100644.28
2023-05-05T18:46:45.453Z,100641.50
2023-05-05T18:49:11.785Z,100638.69
2023-05-05T18:51:38.111Z,100639.81
2023-05-05T18:54:04.484Z,100645.59
2023-05-05T18:56:30.847Z,100641.75
2023-05-05T18:58:57.265Z,100642.38
2023-05-05T19:01:23.598Z,100642.78
2023-05-05T19:03:50.044Z,100637.75
2023-05-05T19:06:17.097Z,100642.78
2023-05-05T19:08:44.409Z,100639.94
2023-05-05T19:11:10.847Z,100640.38
2023-05-05T19:16:09.879Z,100648.34
2023-05-05T19:18:36.233Z,100652.16
2023-05-05T19:21:02.643Z,100654.34
2023-05-05T19:23:29.004Z,100648.91
2023-05-05T19:25:55.398Z,100646.69
2023-05-05T19:28:21.714Z,100651.25
2023-05-05T19:30:48.114Z,100644.97
2023-05-05T19:33:17.720Z,100647.91
2023-05-05T19:35:44.319Z,100653.75
2023-05-05T19:38:10.711Z,100654.94
2023-05-05T19:40:38.275Z,100648.00
2023-05-05T19:43:04.806Z,100654.94
2023-05-05T19:45:31.549Z,100648.09
2023-05-05T19:47:58.032Z,100649.72
2023-05-05T19:50:24.484Z,100641.22
2023-05-05T19:52:50.820Z,100643.00
2023-05-05T19:55:18.196Z,100636.25
2023-05-05T19:57:44.496Z,100640.19
2023-05-05T20:00:11.541Z,100647.22
2023-05-05T20:02:38.121Z,100645.09
2023-05-05T20:05:04.807Z,100643.19
2023-05-05T20:07:31.145Z,100643.13
2023-05-05T20:09:58.514Z,100638.91
2023-05-05T20:12:24.995Z,100649.75
2023-05-05T20:14:51.372Z,100647.13
2023-05-05T20:17:17.684Z,100633.47
2023-05-05T20:19:44.024Z,100640.13
2023-05-05T20:22:10.339Z,100636.28
2023-05-05T20:24:36.652Z,100632.94
2023-05-05T20:27:03.010Z,100639.16
2023-05-05T20:29:29.313Z,100643.06
2023-05-05T20:31:55.759Z,100634.59
2023-05-05T20:34:22.136Z,100634.09
2023-05-05T20:36:48.499Z,100638.28
2023-05-05T20:39:15.287Z,100636.38
2023-05-05T20:41:41.732Z,100635.97
2023-05-05T20:44:08.076Z,100645.94
2023-05-05T20:46:34.507Z,100644.09
2023-05-05T20:49:00.838Z,100643.09
2023-05-05T20:51:27.154Z,100645.50
2023-05-05T20:53:53.473Z,100644.16
2023-05-05T20:56:19.772Z,100636.03
2023-05-05T20:58:46.087Z,100648.72
2023-05-05T21:01:12.446Z,100646.16
2023-05-05T21:03:38.813Z,100647.63
2023-05-05T21:06:05.351Z,100648.56
2023-05-05T21:08:31.690Z,100663.53
2023-05-05T21:10:57.985Z,100664.81
2023-05-05T21:13:24.337Z,100663.31
2023-05-05T21:15:50.673Z,100660.50
2023-05-05T21:18:16.993Z,100662.94
2023-05-05T21:20:43.301Z,100662.94
2023-05-05T21:23:09.646Z,100654.44
2023-05-05T21:25:36.081Z,100644.78
2023-05-05T21:28:02.415Z,100645.69
2023-05-05T21:30:28.835Z,100658.28
2023-05-05T21:32:55.215Z,100666.84
2023-05-05T21:35:21.539Z,100667.97
2023-05-05T21:37:48.644Z,100665.63
2023-05-05T21:40:15.026Z,100669.88
2023-05-05T21:42:42.281Z,100670.53
2023-05-05T21:45:10.623Z,100659.97
2023-05-05T21:47:37.063Z,100662.38
2023-05-05T21:50:03.557Z,100664.81
2023-05-05T21:52:29.871Z,100665.22
2023-05-05T21:54:56.176Z,100663.22
2023-05-05T21:57:22.474Z,100651.97
2023-05-05T21:59:48.805Z,100656.25
2023-05-05T22:02:15.108Z,100649.69
2023-05-05T22:04:41.419Z,100645.84
2023-05-05T22:07:07.733Z,100653.25
2023-05-05T22:09:34.035Z,100648.38
2023-05-05T22:12:00.357Z,100650.63
2023-05-05T22:14:26.708Z,100653.69
2023-05-05T22:16:53.035Z,100651.66
2023-05-05T22:19:19.360Z,100658.28
2023-05-05T22:21:45.649Z,100660.69
2023-05-05T22:24:11.997Z,100659.44
2023-05-05T22:26:38.301Z,100666.66
2023-05-05T22:29:04.617Z,100675.81
2023-05-05T22:31:31.070Z,100674.03
2023-05-05T22:33:57.440Z,100672.84
2023-05-05T22:36:23.909Z,100675.09
2023-05-05T22:38:50.223Z,100676.31
2023-05-05T22:41:16.586Z,100678.06
2023-05-05T22:43:42.906Z,100681.19
2023-05-05T22:46:09.198Z,100677.47
2023-05-05T22:48:35.560Z,100682.56
2023-05-05T22:51:01.900Z,100681.16
2023-05-05T22:53:28.226Z,100670.28
2023-05-05T22:55:54.536Z,100680.59
2023-05-05T22:58:20.986Z,100667.44
2023-05-05T23:00:47.376Z,100674.38
2023-05-05T23:03:13.809Z,100673.94
2023-05-05T23:05:40.097Z,100675.28
2023-05-05T23:08:06.435Z,100671.13
2023-05-05T23:10:32.732Z,100668.84
2023-05-05T23:12:59.052Z,100662.00
2023-05-05T23:15:25.387Z,100661.69
2023-05-05T23:17:51.746Z,100671.38
2023-05-05T23:20:18.117Z,100668.28
2023-05-05T23:22:44.450Z,100670.56
2023-05-05T23:25:11.008Z,100666.41
2023-05-05T23:27:38.927Z,100662.59
2023-05-05T23:30:06.674Z,100667.59
2023-05-05T23:32:33.165Z,100678.19
2023-05-05T23:34:59.513Z,100668.41
2023-05-05T23:37:25.820Z,100674.16
2023-05-05T23:39:52.124Z,100671.97
2023-05-05T23:42:18.426Z,100676.22
2023-05-05T23:44:44.740Z,100679.81
2023-05-05T23:47:11.050Z,100672.72
2023-05-05T23:49:37.798Z,100675.69
2023-05-05T23:52:04.370Z,100685.75
2023-05-05T23:54:30.771Z,100682.06
2023-05-05T23:56:57.079Z,100684.78
2023-05-05T23:59:23.369Z,100689.25
